Time;durP1;ratioP1;P1;durP2;ratioP2;P2;SDS_P1;SDS_P2;PMS_P1;PMS_P2;Temp;Humidity;BMP_temperature;BMP_pressure;BME280_temperature;BME280_humidity;BME280_pressure;Samples;Min_cycle;Max_cycle;Signal;HPM_P1;HPM_P2
2023/03/11 00:00:24;;;;;;;1.27;0.50;;;;;;;;;;4973184;28;20022;-65
2023/03/11 00:02:50;;;;;;;1.48;0.50;;;;;;;;;;4972624;28;20078;-65
2023/03/11 00:05:16;;;;;;;1.00;0.40;;;;;;;;;;4972196;28;20046;-67
2023/03/11 00:07:41;;;;;;;1.00;0.40;;;;;;;;;;4973865;28;20022;-66
2023/03/11 00:10:07;;;;;;;1.30;0.40;;;;;;;;;;4973742;28;20037;-66
2023/03/11 00:12:33;;;;;;;1.00;0.38;;;;;;;;;;4973208;28;20023;-66
2023/03/11 00:14:58;;;;;;;1.30;0.50;;;;;;;;;;4971997;28;20039;-67
2023/03/11 00:17:23;;;;;;;1.07;0.40;;;;;;;;;;4972822;28;20097;-66
2023/03/11 00:19:48;;;;;;;1.33;0.60;;;;;;;;;;4971560;28;20038;-65
2023/03/11 00:22:13;;;;;;;1.37;0.50;;;;;;;;;;4972227;28;20034;-67
2023/03/11 00:24:38;;;;;;;1.10;0.40;;;;;;;;;;4972007;28;20541;-66
2023/03/11 00:27:03;;;;;;;1.05;0.30;;;;;;;;;;4973768;28;20035;-65
2023/03/11 00:29:29;;;;;;;1.17;0.40;;;;;;;;;;4973691;28;20019;-67
2023/03/11 00:31:54;;;;;;;1.52;0.45;;;;;;;;;;4972924;28;20114;-67
2023/03/11 00:34:19;;;;;;;1.53;0.50;;;;;;;;;;4972898;28;20078;-65
2023/03/11 00:36:44;;;;;;;1.10;0.50;;;;;;;;;;4984322;28;20027;-66
2023/03/11 00:39:09;;;;;;;1.30;0.55;;;;;;;;;;4983690;28;20071;-66
2023/03/11 00:41:35;;;;;;;2.20;0.60;;;;;;;;;;4984438;28;20025;-66
2023/03/11 00:44:00;;;;;;;0.90;0.50;;;;;;;;;;4985842;28;20031;-65
2023/03/11 00:46:29;;;;;;;2.30;0.60;;;;;;;;;;4981920;28;20426;-66
2023/03/11 00:48:54;;;;;;;1.25;0.60;;;;;;;;;;4981245;28;20023;-65
2023/03/11 00:51:20;;;;;;;1.85;0.63;;;;;;;;;;4972610;28;20085;-64
2023/03/11 00:53:45;;;;;;;3.20;0.70;;;;;;;;;;4971291;28;20039;-65
2023/03/11 00:56:11;;;;;;;2.13;0.80;;;;;;;;;;4972376;28;20058;-65
2023/03/11 00:58:36;;;;;;;3.20;0.90;;;;;;;;;;4972682;28;20015;-64
2023/03/11 01:01:15;;;;;;;2.10;0.77;;;;;;;;;;4970927;28;20027;-65
2023/03/11 01:03:41;;;;;;;2.55;0.80;;;;;;;;;;4972634;28;20501;-66
2023/03/11 01:06:06;;;;;;;2.47;0.68;;;;;;;;;;4970399;28;20054;-65
2023/03/11 01:08:31;;;;;;;2.13;0.80;;;;;;;;;;4971374;28;20018;-66
2023/03/11 01:10:57;;;;;;;1.85;0.70;;;;;;;;;;4970992;28;20015;-64
2023/03/11 01:13:23;;;;;;;2.50;0.80;;;;;;;;;;4970702;28;20019;-65
2023/03/11 01:15:48;;;;;;;2.35;0.70;;;;;;;;;;4970851;28;20019;-67
2023/03/11 01:18:14;;;;;;;2.08;0.70;;;;;;;;;;4971190;28;20030;-67
2023/03/11 01:20:41;;;;;;;2.65;0.77;;;;;;;;;;4971440;28;20499;-66
2023/03/11 01:23:06;;;;;;;2.03;0.70;;;;;;;;;;4972450;28;20026;-66
2023/03/11 01:25:32;;;;;;;1.83;0.65;;;;;;;;;;4971936;28;20019;-64
2023/03/11 01:27:57;;;;;;;2.47;0.70;;;;;;;;;;4970824;28;20184;-66
2023/03/11 01:30:23;;;;;;;2.10;0.60;;;;;;;;;;4971591;28;20509;-67
2023/03/11 01:32:48;;;;;;;2.15;0.75;;;;;;;;;;4970060;28;20605;-67
2023/03/11 01:35:15;;;;;;;2.00;0.73;;;;;;;;;;4970990;28;20191;-67
2023/03/11 01:37:40;;;;;;;2.22;0.77;;;;;;;;;;4971161;28;20103;-65
2023/03/11 01:40:08;;;;;;;2.33;0.70;;;;;;;;;;4972023;28;20073;-66
2023/03/11 01:42:33;;;;;;;2.10;0.60;;;;;;;;;;4968952;28;20038;-65
2023/03/11 01:44:58;;;;;;;2.73;0.90;;;;;;;;;;4970309;28;20022;-66
2023/03/11 01:47:31;;;;;;;2.23;0.77;;;;;;;;;;4970059;28;20015;-67
2023/03/11 01:49:56;;;;;;;2.63;0.93;;;;;;;;;;4969911;28;20038;-67
2023/03/11 01:52:21;;;;;;;2.10;0.70;;;;;;;;;;4970320;28;20442;-65
2023/03/11 01:54:46;;;;;;;1.92;0.73;;;;;;;;;;4970772;28;20026;-66
2023/03/11 01:57:12;;;;;;;2.67;0.90;;;;;;;;;;4970957;28;20038;-67
2023/03/11 01:59:42;;;;;;;2.72;0.90;;;;;;;;;;4971832;28;20018;-66
2023/03/11 02:02:26;;;;;;;2.45;0.90;;;;;;;;;;4968561;28;20042;-66
2023/03/11 02:04:53;;;;;;;2.17;0.80;;;;;;;;;;4967130;28;20118;-67
2023/03/11 02:07:18;;;;;;;2.13;0.80;;;;;;;;;;4970487;28;20030;-67
2023/03/11 02:09:43;;;;;;;2.40;0.80;;;;;;;;;;4970833;28;20118;-68
2023/03/11 02:12:09;;;;;;;2.27;0.80;;;;;;;;;;4969335;28;20036;-66
2023/03/11 02:14:37;;;;;;;2.90;1.00;;;;;;;;;;4970225;28;20498;-66
2023/03/11 02:17:02;;;;;;;2.53;0.90;;;;;;;;;;4968669;28;20109;-66
2023/03/11 02:19:34;;;;;;;2.53;0.90;;;;;;;;;;4967010;28;20441;-68
2023/03/11 02:22:00;;;;;;;3.22;1.00;;;;;;;;;;4968713;28;20407;-66
2023/03/11 02:24:32;;;;;;;2.33;0.80;;;;;;;;;;4966727;28;20034;-66
2023/03/11 02:27:00;;;;;;;2.70;1.00;;;;;;;;;;4968144;28;20110;-66
2023/03/11 02:29:26;;;;;;;2.50;0.90;;;;;;;;;;4969627;28;20065;-66
2023/03/11 02:31:52;;;;;;;2.55;1.00;;;;;;;;;;4970021;28;20109;-67
2023/03/11 02:34:25;;;;;;;2.50;1.10;;;;;;;;;;4969447;28;20073;-67
2023/03/11 02:36:50;;;;;;;2.90;1.00;;;;;;;;;;4968779;28;20069;-66
2023/03/11 02:39:15;;;;;;;3.03;1.00;;;;;;;;;;4968584;28;20055;-66
2023/03/11 02:41:43;;;;;;;2.35;0.90;;;;;;;;;;4969999;28;20467;-68
2023/03/11 02:44:09;;;;;;;2.58;0.80;;;;;;;;;;4969067;28;20493;-65
2023/03/11 02:46:35;;;;;;;3.13;1.20;;;;;;;;;;4968707;28;20398;-66
2023/03/11 02:49:01;;;;;;;3.33;1.00;;;;;;;;;;4970592;28;20023;-64
2023/03/11 02:51:26;;;;;;;3.45;1.10;;;;;;;;;;4982966;28;20038;-64
2023/03/11 02:53:53;;;;;;;3.55;1.05;;;;;;;;;;4970031;28;20042;-66
2023/03/11 02:56:18;;;;;;;2.92;1.00;;;;;;;;;;4969475;28;20023;-67
2023/03/11 02:58:43;;;;;;;2.38;0.90;;;;;;;;;;4972544;28;20031;-67
2023/03/11 03:01:08;;;;;;;2.45;0.90;;;;;;;;;;4975382;28;20102;-66
2023/03/11 03:03:33;;;;;;;2.67;1.00;;;;;;;;;;4975957;28;20023;-66
2023/03/11 03:05:58;;;;;;;2.47;0.93;;;;;;;;;;4973403;28;20085;-65
2023/03/11 03:08:24;;;;;;;2.45;0.80;;;;;;;;;;4973741;28;20462;-66
2023/03/11 03:10:49;;;;;;;2.38;0.90;;;;;;;;;;4973106;28;20027;-66
2023/03/11 03:13:14;;;;;;;3.28;1.00;;;;;;;;;;4972900;28;20070;-65
2023/03/11 03:15:39;;;;;;;2.70;1.00;;;;;;;;;;4971772;28;20423;-66
2023/03/11 03:18:04;;;;;;;2.20;0.77;;;;;;;;;;4972110;28;20038;-66
2023/03/11 03:20:29;;;;;;;1.97;0.90;;;;;;;;;;4971056;28;20038;-66
2023/03/11 03:22:55;;;;;;;2.97;1.15;;;;;;;;;;4972783;28;20038;-64
2023/03/11 03:25:21;;;;;;;2.70;1.07;;;;;;;;;;4971184;28;20030;-64
2023/03/11 03:27:46;;;;;;;3.00;1.08;;;;;;;;;;4972937;28;20500;-67
2023/03/11 03:30:11;;;;;;;3.87;1.10;;;;;;;;;;4971544;28;20019;-64
2023/03/11 03:32:37;;;;;;;3.80;1.30;;;;;;;;;;4973794;28;20052;-67
2023/03/11 03:35:02;;;;;;;3.40;1.13;;;;;;;;;;4971115;28;20034;-66
2023/03/11 03:37:27;;;;;;;3.20;1.25;;;;;;;;;;4971867;28;20042;-66
2023/03/11 03:39:53;;;;;;;4.38;1.48;;;;;;;;;;4972168;28;20026;-66
2023/03/11 03:42:18;;;;;;;3.47;1.33;;;;;;;;;;4972484;28;20552;-68
2023/03/11 03:44:44;;;;;;;4.03;1.40;;;;;;;;;;4973189;28;20023;-65
2023/03/11 03:47:09;;;;;;;4.60;1.90;;;;;;;;;;4972153;28;20039;-67
2023/03/11 03:49:34;;;;;;;3.93;1.40;;;;;;;;;;4971459;28;20022;-65
2023/03/11 03:51:59;;;;;;;4.50;1.80;;;;;;;;;;4966695;28;20038;-68
2023/03/11 03:54:24;;;;;;;4.55;2.20;;;;;;;;;;4969128;28;20183;-64
2023/03/11 03:56:49;;;;;;;5.60;2.10;;;;;;;;;;4972860;28;20478;-66
2023/03/11 03:59:15;;;;;;;4.82;2.15;;;;;;;;;;4971436;28;20030;-66
2023/03/11 04:01:40;;;;;;;4.45;2.20;;;;;;;;;;4969795;28;20061;-66
2023/03/11 04:04:05;;;;;;;4.50;2.03;;;;;;;;;;4970537;28;20042;-65
2023/03/11 04:06:30;;;;;;;5.07;2.40;;;;;;;;;;4971570;28;20571;-65
2023/03/11 04:08:55;;;;;;;5.25;2.50;;;;;;;;;;4972347;28;20031;-66
2023/03/11 04:11:20;;;;;;;5.80;2.70;;;;;;;;;;4971962;28;20026;-67
2023/03/11 04:13:46;;;;;;;6.25;2.55;;;;;;;;;;4972539;28;20073;-65
2023/03/11 04:16:18;;;;;;;6.15;2.40;;;;;;;;;;4972647;28;20034;-66
2023/03/11 04:18:43;;;;;;;5.80;2.85;;;;;;;;;;4973622;28;20182;-65
2023/03/11 04:21:08;;;;;;;7.22;3.00;;;;;;;;;;4971288;28;20574;-65
2023/03/11 04:23:33;;;;;;;6.10;3.03;;;;;;;;;;4972683;28;20026;-66
2023/03/11 04:25:59;;;;;;;4.95;2.45;;;;;;;;;;4970318;28;20031;-66
2023/03/11 04:28:24;;;;;;;6.13;3.07;;;;;;;;;;4973524;28;20537;-65
2023/03/11 04:30:49;;;;;;;6.53;3.08;;;;;;;;;;4974980;28;20062;-66
2023/03/11 04:33:14;;;;;;;6.05;2.65;;;;;;;;;;4972449;28;20379;-65
2023/03/11 04:35:39;;;;;;;6.00;2.80;;;;;;;;;;4971398;28;20030;-67
2023/03/11 04:38:04;;;;;;;6.20;3.20;;;;;;;;;;4972255;28;20156;-67
2023/03/11 04:40:29;;;;;;;6.45;2.88;;;;;;;;;;4971966;28;20015;-65
2023/03/11 04:42:55;;;;;;;6.63;2.97;;;;;;;;;;4971196;28;20034;-66
2023/03/11 04:45:20;;;;;;;6.73;3.63;;;;;;;;;;4971217;28;20042;-66
2023/03/11 04:47:48;;;;;;;6.80;3.40;;;;;;;;;;4973062;28;20026;-66
2023/03/11 04:50:14;;;;;;;6.97;3.45;;;;;;;;;;4971130;28;20030;-65
2023/03/11 04:52:39;;;;;;;6.97;3.38;;;;;;;;;;4970392;28;20125;-65
2023/03/11 04:55:05;;;;;;;6.55;3.00;;;;;;;;;;4971901;28;20399;-65
2023/03/11 04:57:30;;;;;;;7.20;3.58;;;;;;;;;;4969897;28;20047;-66
2023/03/11 04:59:55;;;;;;;7.03;3.40;;;;;;;;;;4971971;28;20424;-67
2023/03/11 05:02:20;;;;;;;7.32;3.72;;;;;;;;;;4969737;28;20082;-66
2023/03/11 05:04:45;;;;;;;6.78;2.97;;;;;;;;;;4971071;28;20115;-65
2023/03/11 05:07:10;;;;;;;7.70;3.40;;;;;;;;;;4969385;28;20413;-66
2023/03/11 05:09:36;;;;;;;6.97;3.17;;;;;;;;;;4966916;28;20482;-65
2023/03/11 05:12:01;;;;;;;8.40;3.43;;;;;;;;;;4971415;28;20026;-64
2023/03/11 05:14:26;;;;;;;7.00;3.60;;;;;;;;;;4971362;28;20098;-66
2023/03/11 05:16:51;;;;;;;5.87;2.57;;;;;;;;;;4971240;28;20045;-63
2023/03/11 05:19:33;;;;;;;7.40;3.17;;;;;;;;;;4965966;28;20386;-65
2023/03/11 05:21:59;;;;;;;7.00;3.35;;;;;;;;;;4968029;28;20065;-65
2023/03/11 05:24:27;;;;;;;6.18;3.03;;;;;;;;;;4969779;28;20019;-66
2023/03/11 05:26:52;;;;;;;5.72;2.83;;;;;;;;;;4969049;28;20430;-66
2023/03/11 05:29:17;;;;;;;6.60;2.95;;;;;;;;;;4970486;28;20038;-66
2023/03/11 05:31:42;;;;;;;6.68;3.30;;;;;;;;;;4971384;28;20030;-67
2023/03/11 05:34:08;;;;;;;5.97;2.93;;;;;;;;;;4970398;28;20393;-66
2023/03/11 05:36:33;;;;;;;7.03;3.20;;;;;;;;;;4972540;28;20022;-64
2023/03/11 05:38:58;;;;;;;6.88;3.10;;;;;;;;;;4975026;28;20026;-67
2023/03/11 05:41:23;;;;;;;6.00;3.00;;;;;;;;;;4968409;28;20021;-65
2023/03/11 05:43:48;;;;;;;7.23;3.20;;;;;;;;;;4973642;28;20391;-66
2023/03/11 05:46:13;;;;;;;6.68;3.40;;;;;;;;;;4972833;28;20057;-64
2023/03/11 05:48:39;;;;;;;6.43;2.95;;;;;;;;;;4976942;28;20027;-66
2023/03/11 05:51:08;;;;;;;6.60;3.30;;;;;;;;;;4979496;28;20022;-68
2023/03/11 05:53:33;;;;;;;6.20;2.83;;;;;;;;;;4979507;28;20053;-66
2023/03/11 05:55:59;;;;;;;6.03;3.00;;;;;;;;;;4982563;28;20032;-66
2023/03/11 05:58:24;;;;;;;6.28;3.20;;;;;;;;;;4979979;28;20035;-67
2023/03/11 06:00:49;;;;;;;7.40;3.47;;;;;;;;;;4970650;28;20470;-66
2023/03/11 06:03:14;;;;;;;6.47;3.22;;;;;;;;;;4967356;28;20023;-66
2023/03/11 06:05:43;;;;;;;6.50;3.28;;;;;;;;;;4965780;28;20027;-65
2023/03/11 06:08:08;;;;;;;6.30;3.47;;;;;;;;;;4968368;28;20057;-66
2023/03/11 06:10:34;;;;;;;7.40;3.80;;;;;;;;;;4968720;28;20062;-66
2023/03/11 06:12:59;;;;;;;7.05;3.25;;;;;;;;;;4972412;28;20714;-66
2023/03/11 06:15:24;;;;;;;7.97;4.07;;;;;;;;;;4968659;28;20031;-65
2023/03/11 06:17:49;;;;;;;8.05;3.67;;;;;;;;;;4968626;28;20026;-65
2023/03/11 06:20:14;;;;;;;7.43;3.65;;;;;;;;;;4970312;28;20498;-66
2023/03/11 06:22:39;;;;;;;7.00;3.58;;;;;;;;;;4971262;28;20023;-66
2023/03/11 06:25:05;;;;;;;9.13;4.27;;;;;;;;;;4965261;28;20038;-67
2023/03/11 06:27:30;;;;;;;8.53;4.00;;;;;;;;;;4970473;28;20026;-66
2023/03/11 06:29:55;;;;;;;8.95;4.20;;;;;;;;;;4969430;28;20522;-67
2023/03/11 06:32:20;;;;;;;8.07;4.18;;;;;;;;;;4970515;28;20055;-66
2023/03/11 06:34:48;;;;;;;8.57;4.13;;;;;;;;;;4973747;28;20111;-66
2023/03/11 06:37:14;;;;;;;7.93;4.22;;;;;;;;;;4973513;28;20118;-67
2023/03/11 06:39:39;;;;;;;8.07;4.30;;;;;;;;;;4973426;28;20098;-65
2023/03/11 06:42:08;;;;;;;7.57;3.78;;;;;;;;;;4974083;28;20042;-65
2023/03/11 06:44:33;;;;;;;7.93;3.83;;;;;;;;;;4969662;28;20050;-67
2023/03/11 06:46:58;;;;;;;8.70;4.40;;;;;;;;;;4973119;28;20054;-67
2023/03/11 06:49:23;;;;;;;10.50;4.47;;;;;;;;;;4973055;28;20026;-67
2023/03/11 06:51:48;;;;;;;9.80;4.67;;;;;;;;;;4971865;28;20066;-67
2023/03/11 06:54:14;;;;;;;8.98;4.15;;;;;;;;;;4971296;28;20077;-65
2023/03/11 06:56:39;;;;;;;9.43;4.80;;;;;;;;;;4971681;28;20021;-66
2023/03/11 06:59:04;;;;;;;9.82;5.07;;;;;;;;;;4970606;28;20161;-66
2023/03/11 07:01:29;;;;;;;10.13;4.53;;;;;;;;;;4973872;28;20049;-66
2023/03/11 07:03:54;;;;;;;11.40;5.55;;;;;;;;;;4970416;28;20027;-66
2023/03/11 07:06:23;;;;;;;11.80;5.67;;;;;;;;;;4973375;28;20031;-65
2023/03/11 07:08:49;;;;;;;8.57;4.22;;;;;;;;;;4974339;28;20043;-65
2023/03/11 07:11:16;;;;;;;8.82;4.05;;;;;;;;;;4972570;28;20033;-65
2023/03/11 07:13:41;;;;;;;9.70;5.18;;;;;;;;;;4970559;28;20023;-65
2023/03/11 07:16:11;;;;;;;11.45;4.60;;;;;;;;;;4970116;28;20379;-66
2023/03/11 07:18:36;;;;;;;9.10;4.72;;;;;;;;;;4973781;28;20482;-67
2023/03/11 07:21:02;;;;;;;9.53;4.97;;;;;;;;;;4974209;28;20029;-65
2023/03/11 07:23:27;;;;;;;9.43;4.82;;;;;;;;;;4966442;28;20025;-67
2023/03/11 07:25:54;;;;;;;10.40;5.00;;;;;;;;;;4972696;28;20027;-67
2023/03/11 07:28:19;;;;;;;10.60;4.82;;;;;;;;;;4973425;28;20158;-67
2023/03/11 07:30:45;;;;;;;10.23;4.85;;;;;;;;;;4973353;28;20134;-67
2023/03/11 07:33:10;;;;;;;10.88;5.38;;;;;;;;;;4974941;28;20026;-66
2023/03/11 07:35:37;;;;;;;10.67;5.17;;;;;;;;;;4968863;28;20031;-64
2023/03/11 07:38:02;;;;;;;10.48;5.60;;;;;;;;;;4967415;28;20018;-65
2023/03/11 07:40:27;;;;;;;10.80;5.55;;;;;;;;;;4972209;28;20015;-66
2023/03/11 07:42:52;;;;;;;10.93;5.35;;;;;;;;;;4978260;28;20050;-65
2023/03/11 07:45:17;;;;;;;10.77;5.40;;;;;;;;;;4970891;28;20475;-65
2023/03/11 07:47:42;;;;;;;12.20;5.57;;;;;;;;;;4964631;28;20025;-67
2023/03/11 07:50:08;;;;;;;10.00;5.00;;;;;;;;;;4972660;28;20114;-66
2023/03/11 07:52:33;;;;;;;11.02;5.70;;;;;;;;;;4972961;28;20034;-65
2023/03/11 07:54:58;;;;;;;10.05;5.07;;;;;;;;;;4971460;28;20029;-67
2023/03/11 07:57:23;;;;;;;10.33;5.47;;;;;;;;;;4968776;28;20031;-66
2023/03/11 07:59:49;;;;;;;12.20;5.15;;;;;;;;;;4968583;28;20101;-65
2023/03/11 08:02:14;;;;;;;9.40;5.03;;;;;;;;;;4973627;28;20075;-66
2023/03/11 08:04:40;;;;;;;11.13;4.90;;;;;;;;;;4973255;28;20033;-66
2023/03/11 08:07:05;;;;;;;10.57;4.80;;;;;;;;;;4969411;28;20081;-65
2023/03/11 08:09:30;;;;;;;10.70;5.18;;;;;;;;;;4971583;28;20089;-67
2023/03/11 08:11:55;;;;;;;9.75;4.65;;;;;;;;;;4971664;28;20049;-66
2023/03/11 08:14:20;;;;;;;9.02;4.40;;;;;;;;;;4965749;28;20023;-66
2023/03/11 08:16:45;;;;;;;11.52;5.57;;;;;;;;;;4972477;28;20023;-66
2023/03/11 08:19:11;;;;;;;10.32;5.05;;;;;;;;;;4970181;28;20023;-66
2023/03/11 08:21:36;;;;;;;10.38;5.07;;;;;;;;;;4972968;28;20030;-63
2023/03/11 08:24:02;;;;;;;9.30;4.77;;;;;;;;;;4971857;28;20023;-66
2023/03/11 08:26:28;;;;;;;11.18;5.25;;;;;;;;;;4966573;28;20030;-66
2023/03/11 08:28:55;;;;;;;11.07;5.25;;;;;;;;;;4975049;28;20494;-65
2023/03/11 08:31:22;;;;;;;11.55;5.10;;;;;;;;;;4970363;28;20094;-66
2023/03/11 08:33:49;;;;;;;10.75;5.38;;;;;;;;;;4968449;28;20038;-65
2023/03/11 08:36:14;;;;;;;12.25;5.45;;;;;;;;;;4966343;28;20027;-66
2023/03/11 08:38:39;;;;;;;9.80;5.13;;;;;;;;;;4974517;28;20033;-65
2023/03/11 08:41:05;;;;;;;10.73;5.10;;;;;;;;;;4972129;28;20033;-65
2023/03/11 08:43:30;;;;;;;11.77;5.82;;;;;;;;;;4973030;28;20019;-66
2023/03/11 08:45:55;;;;;;;11.68;5.68;;;;;;;;;;4967822;28;20069;-66
2023/03/11 08:48:20;;;;;;;12.20;5.90;;;;;;;;;;4973405;28;20027;-66
2023/03/11 08:50:46;;;;;;;11.15;5.68;;;;;;;;;;4972550;28;20466;-66
2023/03/11 08:53:11;;;;;;;12.73;5.80;;;;;;;;;;4973481;28;20019;-66
2023/03/11 08:55:36;;;;;;;10.00;4.73;;;;;;;;;;4971586;28;20026;-65
2023/03/11 08:58:02;;;;;;;11.03;5.53;;;;;;;;;;4965828;28;20070;-66
2023/03/11 09:00:27;;;;;;;11.10;5.88;;;;;;;;;;4971023;28;20023;-66
2023/03/11 09:02:52;;;;;;;12.40;5.17;;;;;;;;;;4972681;28;20052;-67
2023/03/11 09:05:18;;;;;;;10.32;4.72;;;;;;;;;;4970960;28;20023;-66
2023/03/11 09:07:43;;;;;;;10.75;4.70;;;;;;;;;;4967481;28;20030;-65
2023/03/11 09:10:09;;;;;;;10.02;5.25;;;;;;;;;;4973158;28;20033;-66
2023/03/11 09:12:35;;;;;;;9.13;4.53;;;;;;;;;;4967716;28;20037;-65
2023/03/11 09:15:00;;;;;;;10.30;4.82;;;;;;;;;;4966216;28;20363;-64
2023/03/11 09:17:25;;;;;;;8.52;4.70;;;;;;;;;;4986309;28;20022;-66
2023/03/11 09:19:50;;;;;;;9.80;5.22;;;;;;;;;;4966218;28;20057;-65
2023/03/11 09:22:15;;;;;;;9.60;4.82;;;;;;;;;;4966306;28;20498;-65
2023/03/11 09:24:40;;;;;;;9.13;4.90;;;;;;;;;;4965302;28;20141;-67
2023/03/11 09:27:06;;;;;;;10.02;4.82;;;;;;;;;;4965795;28;20054;-65
2023/03/11 09:29:31;;;;;;;10.18;5.45;;;;;;;;;;4981419;28;20518;-66
2023/03/11 09:31:56;;;;;;;11.43;5.33;;;;;;;;;;4967216;28;20117;-65
2023/03/11 09:34:21;;;;;;;11.68;6.03;;;;;;;;;;4968360;28;20030;-66
2023/03/11 09:36:47;;;;;;;11.53;5.90;;;;;;;;;;4963184;28;20034;-66
2023/03/11 09:39:12;;;;;;;10.98;5.72;;;;;;;;;;4965991;28;20050;-66
2023/03/11 09:41:41;;;;;;;10.32;5.40;;;;;;;;;;4962321;28;20309;-66
2023/03/11 09:44:13;;;;;;;10.60;5.22;;;;;;;;;;4967494;28;20019;-64
2023/03/11 09:46:48;;;;;;;12.55;6.18;;;;;;;;;;4958200;28;20107;-66
2023/03/11 09:49:32;;;;;;;11.15;5.93;;;;;;;;;;4965632;28;20541;-65
2023/03/11 09:52:14;;;;;;;11.88;6.50;;;;;;;;;;4964641;28;20035;-66
2023/03/11 09:54:41;;;;;;;11.18;5.22;;;;;;;;;;4961198;28;20027;-64
2023/03/11 09:57:08;;;;;;;12.13;5.60;;;;;;;;;;4966269;28;20034;-65
2023/03/11 09:59:35;;;;;;;12.18;6.28;;;;;;;;;;4963215;28;20026;-65
2023/03/11 10:02:02;;;;;;;13.23;6.15;;;;;;;;;;4968360;28;20027;-66
2023/03/11 10:04:35;;;;;;;17.25;7.45;;;;;;;;;;4962863;28;20120;-65
2023/03/11 10:07:04;;;;;;;14.52;5.90;;;;;;;;;;4956965;28;20387;-63
2023/03/11 10:09:39;;;;;;;9.85;5.00;;;;;;;;;;4960961;28;20043;-65
2023/03/11 10:12:20;;;;;;;11.88;5.88;;;;;;;;;;4964509;28;20019;-65
2023/03/11 10:15:04;;;;;;;9.60;5.43;;;;;;;;;;4961442;28;20101;-66
2023/03/11 10:17:48;;;;;;;10.55;5.07;;;;;;;;;;4961154;28;20030;-65
2023/03/11 10:20:20;;;;;;;11.32;5.38;;;;;;;;;;4965791;28;20546;-67
2023/03/11 10:22:48;;;;;;;11.13;4.82;;;;;;;;;;4966010;28;20065;-65
2023/03/11 10:25:15;;;;;;;10.73;5.15;;;;;;;;;;4964464;28;20022;-64
2023/03/11 10:27:53;;;;;;;11.88;6.32;;;;;;;;;;4968550;28;20023;-64
2023/03/11 10:30:22;;;;;;;11.23;5.35;;;;;;;;;;4964153;28;20023;-65
2023/03/11 10:32:56;;;;;;;10.98;5.65;;;;;;;;;;4969537;28;20558;-64
2023/03/11 10:35:23;;;;;;;9.90;5.30;;;;;;;;;;4965030;28;20110;-65
2023/03/11 10:37:59;;;;;;;9.88;4.70;;;;;;;;;;4961815;28;20034;-65
2023/03/11 10:40:35;;;;;;;10.27;4.47;;;;;;;;;;4961207;28;20050;-64
2023/03/11 10:43:09;;;;;;;8.65;4.50;;;;;;;;;;4963601;28;20153;-67
2023/03/11 10:45:37;;;;;;;10.07;4.88;;;;;;;;;;4960682;28;20018;-66
2023/03/11 10:48:07;;;;;;;9.25;4.53;;;;;;;;;;4963784;28;20034;-64
2023/03/11 10:50:33;;;;;;;11.88;5.32;;;;;;;;;;4963916;28;20133;-67
2023/03/11 10:53:06;;;;;;;9.90;5.03;;;;;;;;;;4962631;28;20027;-65
2023/03/11 10:55:33;;;;;;;9.07;4.65;;;;;;;;;;4959850;28;20491;-64
2023/03/11 10:58:03;;;;;;;10.05;4.90;;;;;;;;;;4961533;28;20031;-65
2023/03/11 11:00:29;;;;;;;11.88;5.13;;;;;;;;;;4968372;28;20026;-66
2023/03/11 11:03:00;;;;;;;9.30;4.45;;;;;;;;;;4964195;28;20708;-65
2023/03/11 11:05:27;;;;;;;9.52;4.32;;;;;;;;;;4966735;28;20034;-65
2023/03/11 11:08:03;;;;;;;9.10;4.53;;;;;;;;;;4964186;28;20430;-65
2023/03/11 11:10:28;;;;;;;8.80;4.28;;;;;;;;;;4966128;28;20089;-64
2023/03/11 11:13:17;;;;;;;8.77;4.93;;;;;;;;;;4967056;28;20022;-65
2023/03/11 11:15:51;;;;;;;8.93;4.20;;;;;;;;;;4961741;28;20053;-63
2023/03/11 11:18:22;;;;;;;8.98;4.15;;;;;;;;;;4969101;28;20043;-67
2023/03/11 11:20:59;;;;;;;7.93;4.00;;;;;;;;;;4971347;28;20065;-66
2023/03/11 11:23:45;;;;;;;9.43;4.70;;;;;;;;;;4973927;28;20294;-66
2023/03/11 11:26:21;;;;;;;8.80;4.80;;;;;;;;;;4976263;28;20035;-67
2023/03/11 11:29:03;;;;;;;10.02;4.55;;;;;;;;;;4979729;28;20573;-65
2023/03/11 11:31:28;;;;;;;9.00;4.55;;;;;;;;;;4980318;28;20030;-66
2023/03/11 11:33:55;;;;;;;9.17;4.83;;;;;;;;;;4981443;28;20041;-67
2023/03/11 11:36:28;;;;;;;9.00;3.92;;;;;;;;;;4977609;28;20462;-64
2023/03/11 11:38:54;;;;;;;9.80;4.82;;;;;;;;;;4982895;28;20034;-66
2023/03/11 11:41:20;;;;;;;8.30;4.00;;;;;;;;;;4982865;28;20050;-69
2023/03/11 11:43:51;;;;;;;10.48;4.50;;;;;;;;;;4982173;28;20046;-71
2023/03/11 11:46:23;;;;;;;8.40;4.20;;;;;;;;;;4996548;28;20050;-70
2023/03/11 11:48:51;;;;;;;8.65;4.13;;;;;;;;;;4989678;28;20049;-66
2023/03/11 11:51:20;;;;;;;9.20;4.13;;;;;;;;;;4993290;28;20027;-64
2023/03/11 11:53:54;;;;;;;8.18;3.88;;;;;;;;;;4977611;28;20109;-65
2023/03/11 11:56:22;;;;;;;6.80;3.55;;;;;;;;;;4977878;28;20050;-65
2023/03/11 11:58:47;;;;;;;7.45;3.60;;;;;;;;;;4970635;28;20054;-66
2023/03/11 12:01:14;;;;;;;7.45;3.90;;;;;;;;;;4976475;28;20561;-64
2023/03/11 12:03:58;;;;;;;9.40;3.75;;;;;;;;;;4962980;28;20034;-66
2023/03/11 12:06:30;;;;;;;8.13;3.60;;;;;;;;;;4968577;28;21004;-65
2023/03/11 12:09:05;;;;;;;7.80;3.80;;;;;;;;;;4962432;28;20663;-65
2023/03/11 12:11:40;;;;;;;7.70;3.72;;;;;;;;;;4962805;28;20019;-66
2023/03/11 12:14:12;;;;;;;9.90;4.18;;;;;;;;;;4959607;28;20052;-65
2023/03/11 12:16:40;;;;;;;7.85;3.60;;;;;;;;;;4965162;28;20394;-66
2023/03/11 12:19:11;;;;;;;6.90;3.22;;;;;;;;;;4968669;28;20058;-65
2023/03/11 12:21:42;;;;;;;6.38;3.15;;;;;;;;;;4970664;28;21898;-66
2023/03/11 12:24:35;;;;;;;7.57;3.45;;;;;;;;;;4969399;28;20027;-64
2023/03/11 12:27:03;;;;;;;7.78;3.35;;;;;;;;;;4967247;28;20035;-65
2023/03/11 12:29:32;;;;;;;8.32;3.75;;;;;;;;;;4966752;28;20379;-68
2023/03/11 12:31:58;;;;;;;11.00;4.50;;;;;;;;;;4968267;28;20031;-64
2023/03/11 12:34:24;;;;;;;9.70;4.35;;;;;;;;;;4960345;28;20037;-65
2023/03/11 12:36:50;;;;;;;8.93;3.83;;;;;;;;;;4966579;28;20115;-66
2023/03/11 12:39:21;;;;;;;7.68;3.47;;;;;;;;;;4961483;28;20569;-66
2023/03/11 12:41:46;;;;;;;6.90;3.30;;;;;;;;;;4965606;28;20067;-65
2023/03/11 12:44:24;;;;;;;7.93;3.60;;;;;;;;;;4960097;28;20684;-67
2023/03/11 12:46:52;;;;;;;9.02;3.60;;;;;;;;;;4960355;28;20625;-65
2023/03/11 12:49:22;;;;;;;12.55;4.13;;;;;;;;;;4962425;28;20042;-66
2023/03/11 12:52:16;;;;;;;8.48;3.47;;;;;;;;;;4966501;28;20027;-66
2023/03/11 12:54:45;;;;;;;7.55;3.58;;;;;;;;;;4956288;28;20109;-66
2023/03/11 12:57:25;;;;;;;8.73;3.63;;;;;;;;;;4969425;28;20157;-66
2023/03/11 12:59:56;;;;;;;8.23;4.10;;;;;;;;;;4968531;28;20445;-65
2023/03/11 13:02:39;;;;;;;7.90;3.85;;;;;;;;;;4973170;28;20026;-65
2023/03/11 13:05:06;;;;;;;8.77;3.60;;;;;;;;;;4970048;28;20031;-67
2023/03/11 13:07:36;;;;;;;8.10;3.92;;;;;;;;;;4965920;28;20046;-65
2023/03/11 13:10:13;;;;;;;9.00;3.70;;;;;;;;;;4966717;28;20049;-65
2023/03/11 13:12:43;;;;;;;7.60;3.63;;;;;;;;;;4962692;28;20033;-63
2023/03/11 13:15:28;;;;;;;8.30;4.00;;;;;;;;;;4968029;28;20037;-66
2023/03/11 13:17:56;;;;;;;8.05;3.97;;;;;;;;;;4963689;28;20026;-63
2023/03/11 13:20:42;;;;;;;8.38;4.28;;;;;;;;;;4968881;28;20030;-65
2023/03/11 13:23:11;;;;;;;8.93;4.05;;;;;;;;;;4965183;28;20022;-67
2023/03/11 13:25:40;;;;;;;9.50;4.07;;;;;;;;;;4963309;28;20512;-65
2023/03/11 13:28:24;;;;;;;10.43;4.45;;;;;;;;;;4967431;28;20038;-65
2023/03/11 13:30:58;;;;;;;9.18;4.03;;;;;;;;;;4966459;28;20089;-66
2023/03/11 13:33:30;;;;;;;9.43;4.47;;;;;;;;;;4968520;28;20027;-65
2023/03/11 13:36:01;;;;;;;10.98;4.70;;;;;;;;;;4969928;28;20081;-63
2023/03/11 13:38:38;;;;;;;8.93;3.95;;;;;;;;;;4967679;28;20045;-66
2023/03/11 13:41:12;;;;;;;9.10;4.07;;;;;;;;;;4968229;28;20043;-66
2023/03/11 13:43:42;;;;;;;9.02;4.28;;;;;;;;;;4965725;28;20023;-65
2023/03/11 13:46:13;;;;;;;8.90;4.40;;;;;;;;;;4967687;28;20041;-67
2023/03/11 13:48:44;;;;;;;7.63;3.80;;;;;;;;;;4971015;28;20435;-65
2023/03/11 13:51:21;;;;;;;8.15;3.83;;;;;;;;;;4970646;28;20031;-65
2023/03/11 13:53:49;;;;;;;7.93;3.63;;;;;;;;;;4969886;28;20031;-66
2023/03/11 13:56:20;;;;;;;7.70;3.92;;;;;;;;;;4969340;28;20039;-63
2023/03/11 13:58:46;;;;;;;10.07;3.92;;;;;;;;;;4968042;28;20118;-65
2023/03/11 14:01:14;;;;;;;10.50;4.00;;;;;;;;;;4967694;28;20109;-66
2023/03/11 14:03:40;;;;;;;8.32;3.72;;;;;;;;;;4969407;28;20022;-66
2023/03/11 14:06:07;;;;;;;9.25;3.90;;;;;;;;;;4966264;28;20413;-65
2023/03/11 14:08:35;;;;;;;7.82;3.47;;;;;;;;;;4966630;28;20041;-64
2023/03/11 14:11:02;;;;;;;7.40;3.40;;;;;;;;;;4966969;28;20146;-64
2023/03/11 14:13:28;;;;;;;9.15;3.70;;;;;;;;;;4959268;28;20064;-65
2023/03/11 14:15:59;;;;;;;8.00;3.78;;;;;;;;;;4964478;28;20114;-65
2023/03/11 14:18:26;;;;;;;10.23;3.92;;;;;;;;;;4966550;28;20019;-64
2023/03/11 14:20:52;;;;;;;8.13;3.20;;;;;;;;;;4963463;28;20085;-66
2023/03/11 14:23:18;;;;;;;7.00;3.00;;;;;;;;;;4966962;28;20023;-65
2023/03/11 14:25:43;;;;;;;9.93;3.13;;;;;;;;;;4965621;28;20050;-63
2023/03/11 14:28:17;;;;;;;6.00;2.63;;;;;;;;;;4962060;28;20042;-65
2023/03/11 14:30:53;;;;;;;6.30;2.78;;;;;;;;;;4962485;28;20045;-63
2023/03/11 14:33:20;;;;;;;6.47;2.97;;;;;;;;;;4966257;28;20053;-65
2023/03/11 14:35:50;;;;;;;7.18;3.05;;;;;;;;;;4962883;28;20035;-65
2023/03/11 14:38:20;;;;;;;7.15;3.10;;;;;;;;;;4964249;28;20045;-65
2023/03/11 14:40:48;;;;;;;9.23;3.45;;;;;;;;;;4958314;28;20031;-65
2023/03/11 14:43:13;;;;;;;8.38;3.08;;;;;;;;;;4960129;28;20050;-65